sensor_id;sensor_type;location;lat;lon;timestamp;pressure;altitude;pressure_sealevel;temperature;humidity
10992;BME280;5549;47.028;15.514;2023-05-17T00:01:25;95908.56;;;12.04;83.52
10992;BME280;5549;47.028;15.514;2023-05-17T00:03:54;95901.44;;;11.97;84.70
10992;BME280;5549;47.028;15.514;2023-05-17T00:06:26;95900.81;;;12.03;84.10
10992;BME280;5549;47.028;15.514;2023-05-17T00:08:55;95907.88;;;12.02;84.70
10992;BME280;5549;47.028;15.514;2023-05-17T00:11:22;95903.81;;;12.08;84.34
10992;BME280;5549;47.028;15.514;2023-05-17T00:13:52;95913.00;;;12.04;83.78
10992;BME280;5549;47.028;15.514;2023-05-17T00:16:19;95906.91;;;12.03;83.39
10992;BME280;5549;47.028;15.514;2023-05-17T00:18:47;95909.09;;;12.08;83.90
10992;BME280;5549;47.028;15.514;2023-05-17T00:21:14;95913.38;;;12.09;83.21
10992;BME280;5549;47.028;15.514;2023-05-17T00:23:43;95912.38;;;12.10;82.55
10992;BME280;5549;47.028;15.514;2023-05-17T00:26:11;95913.75;;;12.14;82.83
10992;BME280;5549;47.028;15.514;2023-05-17T00:28:39;95911.94;;;12.14;82.16
10992;BME280;5549;47.028;15.514;2023-05-17T00:31:06;95914.44;;;12.16;81.95
10992;BME280;5549;47.028;15.514;2023-05-17T00:33:36;95911.19;;;12.04;83.49
10992;BME280;5549;47.028;15.514;2023-05-17T00:36:04;95914.03;;;12.11;83.77
10992;BME280;5549;47.028;15.514;2023-05-17T00:38:32;95912.38;;;12.10;84.07
10992;BME280;5549;47.028;15.514;2023-05-17T00:41:01;95912.06;;;12.13;83.65
10992;BME280;5549;47.028;15.514;2023-05-17T00:43:29;95912.78;;;12.15;82.94
10992;BME280;5549;47.028;15.514;2023-05-17T00:45:59;95916.75;;;12.19;82.11
10992;BME280;5549;47.028;15.514;2023-05-17T00:48:27;95910.16;;;12.15;82.26
10992;BME280;5549;47.028;15.514;2023-05-17T00:50:55;95913.75;;;12.14;83.05
10992;BME280;5549;47.028;15.514;2023-05-17T00:53:25;95906.22;;;12.19;82.45
10992;BME280;5549;47.028;15.514;2023-05-17T00:55:57;95899.16;;;12.19;83.08
10992;BME280;5549;47.028;15.514;2023-05-17T00:58:26;95898.34;;;12.19;82.94
10992;BME280;5549;47.028;15.514;2023-05-17T01:00:53;95901.19;;;12.08;82.98
10992;BME280;5549;47.028;15.514;2023-05-17T01:03:21;95903.22;;;12.14;83.93
10992;BME280;5549;47.028;15.514;2023-05-17T01:05:51;95902.09;;;12.16;83.94
10992;BME280;5549;47.028;15.514;2023-05-17T01:08:18;95900.28;;;12.17;83.76
10992;BME280;5549;47.028;15.514;2023-05-17T01:10:55;95905.09;;;12.22;84.09
10992;BME280;5549;47.028;15.514;2023-05-17T01:13:32;95896.72;;;12.26;83.64
10992;BME280;5549;47.028;15.514;2023-05-17T01:16:12;95908.75;;;12.29;82.99
10992;BME280;5549;47.028;15.514;2023-05-17T01:18:47;95914.69;;;12.31;82.44
10992;BME280;5549;47.028;15.514;2023-05-17T01:21:34;95916.19;;;12.33;81.77
10992;BME280;5549;47.028;15.514;2023-05-17T01:24:16;95910.75;;;12.35;81.94
10992;BME280;5549;47.028;15.514;2023-05-17T01:26:53;95905.50;;;12.35;82.18
10992;BME280;5549;47.028;15.514;2023-05-17T01:29:23;95921.97;;;12.37;82.87
10992;BME280;5549;47.028;15.514;2023-05-17T01:31:53;95906.00;;;12.38;82.99
10992;BME280;5549;47.028;15.514;2023-05-17T01:34:25;95908.50;;;12.40;82.80
10992;BME280;5549;47.028;15.514;2023-05-17T01:36:52;95908.50;;;12.40;82.86
10992;BME280;5549;47.028;15.514;2023-05-17T01:39:22;95916.22;;;12.41;82.89
10992;BME280;5549;47.028;15.514;2023-05-17T01:42:04;95912.63;;;12.42;82.00
10992;BME280;5549;47.028;15.514;2023-05-17T01:44:41;95912.94;;;12.39;82.56
10992;BME280;5549;47.028;15.514;2023-05-17T01:47:19;95910.00;;;12.42;82.72
10992;BME280;5549;47.028;15.514;2023-05-17T01:49:52;95909.00;;;12.43;83.11
10992;BME280;5549;47.028;15.514;2023-05-17T01:52:28;95912.25;;;12.37;82.86
10992;BME280;5549;47.028;15.514;2023-05-17T01:55:07;95915.63;;;12.22;83.43
10992;BME280;5549;47.028;15.514;2023-05-17T01:57:40;95919.28;;;12.29;83.13
10992;BME280;5549;47.028;15.514;2023-05-17T02:00:11;95918.16;;;12.31;83.70
10992;BME280;5549;47.028;15.514;2023-05-17T02:02:39;95918.81;;;12.33;83.53
10992;BME280;5549;47.028;15.514;2023-05-17T02:05:10;95914.22;;;12.35;82.71
10992;BME280;5549;47.028;15.514;2023-05-17T02:07:40;95910.97;;;12.41;81.07
10992;BME280;5549;47.028;15.514;2023-05-17T02:10:08;95919.84;;;12.40;80.77
10992;BME280;5549;47.028;15.514;2023-05-17T02:12:36;95922.47;;;12.40;80.75
10992;BME280;5549;47.028;15.514;2023-05-17T02:15:07;95915.25;;;12.42;81.38
10992;BME280;5549;47.028;15.514;2023-05-17T02:17:36;95922.16;;;12.43;81.67
10992;BME280;5549;47.028;15.514;2023-05-17T02:20:07;95917.56;;;12.45;82.09
10992;BME280;5549;47.028;15.514;2023-05-17T02:22:39;95920.22;;;12.45;82.24
10992;BME280;5549;47.028;15.514;2023-05-17T02:25:09;95935.03;;;12.46;81.81
10992;BME280;5549;47.028;15.514;2023-05-17T02:27:37;95932.72;;;12.43;81.68
10992;BME280;5549;47.028;15.514;2023-05-17T02:30:10;95935.03;;;12.46;81.93
10992;BME280;5549;47.028;15.514;2023-05-17T02:32:41;95931.72;;;12.44;82.05
10992;BME280;5549;47.028;15.514;2023-05-17T02:35:09;95935.03;;;12.46;81.89
10992;BME280;5549;47.028;15.514;2023-05-17T02:37:37;95940.44;;;12.45;81.73
10992;BME280;5549;47.028;15.514;2023-05-17T02:40:07;95941.31;;;12.53;80.42
10992;BME280;5549;47.028;15.514;2023-05-17T02:42:35;95944.94;;;12.52;80.41
10992;BME280;5549;47.028;15.514;2023-05-17T02:45:04;95949.38;;;12.52;79.93
10992;BME280;5549;47.028;15.514;2023-05-17T02:47:33;95952.00;;;12.52;79.64
10992;BME280;5549;47.028;15.514;2023-05-17T02:50:04;95954.34;;;12.55;80.36
10992;BME280;5549;47.028;15.514;2023-05-17T02:52:34;95946.28;;;12.57;79.67
10992;BME280;5549;47.028;15.514;2023-05-17T02:55:02;95954.03;;;12.58;78.40
10992;BME280;5549;47.028;15.514;2023-05-17T02:57:29;95951.22;;;12.60;78.90
10992;BME280;5549;47.028;15.514;2023-05-17T02:59:59;95954.84;;;12.59;78.66
10992;BME280;5549;47.028;15.514;2023-05-17T03:02:27;95954.84;;;12.59;78.86
10992;BME280;5549;47.028;15.514;2023-05-17T03:04:58;95947.09;;;12.57;79.02
10992;BME280;5549;47.028;15.514;2023-05-17T03:07:26;95946.78;;;12.60;78.91
10992;BME280;5549;47.028;15.514;2023-05-17T03:09:53;95940.69;;;12.60;78.89
10992;BME280;5549;47.028;15.514;2023-05-17T03:12:21;95937.19;;;12.51;79.95
10992;BME280;5549;47.028;15.514;2023-05-17T03:14:51;95943.91;;;12.45;80.61
10992;BME280;5549;47.028;15.514;2023-05-17T03:17:21;95945.88;;;12.43;80.63
10992;BME280;5549;47.028;15.514;2023-05-17T03:19:49;95949.47;;;12.42;80.59
10992;BME280;5549;47.028;15.514;2023-05-17T03:22:20;95945.78;;;12.27;81.18
10992;BME280;5549;47.028;15.514;2023-05-17T03:24:47;95944.53;;;12.39;80.83
10992;BME280;5549;47.028;15.514;2023-05-17T03:27:15;95947.16;;;12.39;81.54
10992;BME280;5549;47.028;15.514;2023-05-17T03:29:45;95948.44;;;12.35;81.48
10992;BME280;5549;47.028;15.514;2023-05-17T03:32:12;95950.00;;;12.20;81.31
10992;BME280;5549;47.028;15.514;2023-05-17T03:34:40;95953.31;;;12.22;81.27
10992;BME280;5549;47.028;15.514;2023-05-17T03:37:07;95960.44;;;12.12;80.83
10992;BME280;5549;47.028;15.514;2023-05-17T03:39:39;95963.78;;;12.14;81.05
10992;BME280;5549;47.028;15.514;2023-05-17T03:42:06;95967.38;;;11.95;80.81
10992;BME280;5549;47.028;15.514;2023-05-17T03:44:34;95977.13;;;12.03;80.63
10992;BME280;5549;47.028;15.514;2023-05-17T03:47:04;95997.75;;;12.07;81.69
10992;BME280;5549;47.028;15.514;2023-05-17T03:49:35;96000.16;;;12.18;80.99
10992;BME280;5549;47.028;15.514;2023-05-17T03:52:05;95998.41;;;12.27;81.72
10992;BME280;5549;47.028;15.514;2023-05-17T03:54:33;96006.69;;;12.32;81.77
10992;BME280;5549;47.028;15.514;2023-05-17T03:57:04;96008.66;;;12.30;82.22
10992;BME280;5549;47.028;15.514;2023-05-17T03:59:34;96016.53;;;12.12;84.40
10992;BME280;5549;47.028;15.514;2023-05-17T04:02:05;96034.06;;;12.04;84.92
10992;BME280;5549;47.028;15.514;2023-05-17T04:04:35;96033.75;;;11.89;85.71
10992;BME280;5549;47.028;15.514;2023-05-17T04:07:02;96046.38;;;11.85;86.42
10992;BME280;5549;47.028;15.514;2023-05-17T04:09:30;96051.44;;;11.69;86.54
10992;BME280;5549;47.028;15.514;2023-05-17T04:12:05;96050.16;;;12.01;85.03
10992;BME280;5549;47.028;15.514;2023-05-17T04:14:34;96055.63;;;11.89;85.08
10992;BME280;5549;47.028;15.514;2023-05-17T04:17:04;96061.72;;;12.08;84.55
10992;BME280;5549;47.028;15.514;2023-05-17T04:19:33;96064.31;;;12.17;84.52
10992;BME280;5549;47.028;15.514;2023-05-17T04:22:01;96071.09;;;12.20;83.21
10992;BME280;5549;47.028;15.514;2023-05-17T04:24:29;96073.50;;;12.31;82.34
10992;BME280;5549;47.028;15.514;2023-05-17T04:26:57;96079.81;;;12.38;80.43
10992;BME280;5549;47.028;15.514;2023-05-17T04:29:25;96083.88;;;12.33;79.89
10992;BME280;5549;47.028;15.514;2023-05-17T04:31:53;96088.38;;;12.40;80.64
10992;BME280;5549;47.028;15.514;2023-05-17T04:34:21;96088.97;;;12.52;78.60
10992;BME280;5549;47.028;15.514;2023-05-17T04:36:50;96093.63;;;12.58;77.84
10992;BME280;5549;47.028;15.514;2023-05-17T04:39:18;96090.47;;;12.55;79.14
10992;BME280;5549;47.028;15.514;2023-05-17T04:41:46;96095.50;;;12.66;79.89
10992;BME280;5549;47.028;15.514;2023-05-17T04:44:14;96092.78;;;12.75;78.21
10992;BME280;5549;47.028;15.514;2023-05-17T04:46:43;96097.22;;;12.75;76.98
10992;BME280;5549;47.028;15.514;2023-05-17T04:49:11;96092.97;;;12.82;77.25
10992;BME280;5549;47.028;15.514;2023-05-17T04:51:41;96104.28;;;12.74;79.38
10992;BME280;5549;47.028;15.514;2023-05-17T04:54:11;96105.47;;;12.80;81.72
10992;BME280;5549;47.028;15.514;2023-05-17T04:56:41;96106.81;;;12.84;81.65
10992;BME280;5549;47.028;15.514;2023-05-17T04:59:11;96109.81;;;12.89;81.17
10992;BME280;5549;47.028;15.514;2023-05-17T05:01:40;96105.91;;;12.93;79.25
10992;BME280;5549;47.028;15.514;2023-05-17T05:04:09;96103.63;;;12.98;79.00
10992;BME280;5549;47.028;15.514;2023-05-17T05:06:39;96096.09;;;13.03;77.86
10992;BME280;5549;47.028;15.514;2023-05-17T05:09:07;96090.88;;;13.11;76.62
10992;BME280;5549;47.028;15.514;2023-05-17T05:11:38;96083.13;;;13.10;78.03
10992;BME280;5549;47.028;15.514;2023-05-17T05:14:05;96082.38;;;13.18;78.00
10992;BME280;5549;47.028;15.514;2023-05-17T05:16:33;96085.13;;;13.16;78.09
10992;BME280;5549;47.028;15.514;2023-05-17T05:19:04;96081.72;;;13.24;77.17
10992;BME280;5549;47.028;15.514;2023-05-17T05:21:35;96091.84;;;13.36;77.76
10992;BME280;5549;47.028;15.514;2023-05-17T05:24:03;96084.81;;;13.45;77.20
10992;BME280;5549;47.028;15.514;2023-05-17T05:26:33;96085.66;;;13.54;77.42
10992;BME280;5549;47.028;15.514;2023-05-17T05:29:00;96087.81;;;13.58;77.98
10992;BME280;5549;47.028;15.514;2023-05-17T05:31:28;96089.66;;;13.66;77.44
10992;BME280;5549;47.028;15.514;2023-05-17T05:33:58;96102.06;;;13.73;77.66
10992;BME280;5549;47.028;15.514;2023-05-17T05:36:26;96101.44;;;13.79;78.27
10992;BME280;5549;47.028;15.514;2023-05-17T05:38:54;96098.47;;;13.82;79.26
10992;BME280;5549;47.028;15.514;2023-05-17T05:41:24;96102.75;;;13.84;80.30
10992;BME280;5549;47.028;15.514;2023-05-17T05:43:52;96114.53;;;13.89;81.27
10992;BME280;5549;47.028;15.514;2023-05-17T05:46:21;96113.69;;;13.89;82.45
10992;BME280;5549;47.028;15.514;2023-05-17T05:48:49;96117.75;;;13.75;84.08
10992;BME280;5549;47.028;15.514;2023-05-17T05:51:17;96119.88;;;13.71;83.90
10992;BME280;5549;47.028;15.514;2023-05-17T05:53:47;96126.66;;;13.74;83.47
10992;BME280;5549;47.028;15.514;2023-05-17T05:56:18;96131.44;;;13.78;83.63
10992;BME280;5549;47.028;15.514;2023-05-17T05:58:48;96131.09;;;13.73;83.77
10992;BME280;5549;47.028;15.514;2023-05-17T06:01:18;96130.53;;;13.88;82.65
10992;BME280;5549;47.028;15.514;2023-05-17T06:03:47;96143.06;;;13.94;80.80
10992;BME280;5549;47.028;15.514;2023-05-17T06:06:15;96139.66;;;14.09;80.96
10992;BME280;5549;47.028;15.514;2023-05-17T06:08:44;96143.81;;;14.20;79.30
10992;BME280;5549;47.028;15.514;2023-05-17T06:11:13;96145.66;;;14.36;79.42
10992;BME280;5549;47.028;15.514;2023-05-17T06:13:41;96153.16;;;14.49;80.50
10992;BME280;5549;47.028;15.514;2023-05-17T06:16:09;96158.47;;;14.65;79.79
10992;BME280;5549;47.028;15.514;2023-05-17T06:18:36;96171.34;;;14.76;79.68
10992;BME280;5549;47.028;15.514;2023-05-17T06:21:04;96176.63;;;14.60;75.47
10992;BME280;5549;47.028;15.514;2023-05-17T06:23:34;96183.25;;;14.88;76.80
10992;BME280;5549;47.028;15.514;2023-05-17T06:26:01;96178.28;;;15.01;77.55
10992;BME280;5549;47.028;15.514;2023-05-17T06:28:29;96166.72;;;15.11;78.35
10992;BME280;5549;47.028;15.514;2023-05-17T06:30:58;96178.28;;;15.18;77.32
10992;BME280;5549;47.028;15.514;2023-05-17T06:33:26;96185.38;;;15.25;75.75
10992;BME280;5549;47.028;15.514;2023-05-17T06:35:54;96187.84;;;15.35;75.40
10992;BME280;5549;47.028;15.514;2023-05-17T06:38:22;96198.44;;;15.43;75.00
10992;BME280;5549;47.028;15.514;2023-05-17T06:40:51;96198.59;;;15.50;73.89
10992;BME280;5549;47.028;15.514;2023-05-17T06:43:19;96194.13;;;15.58;75.71
10992;BME280;5549;47.028;15.514;2023-05-17T06:45:48;96199.59;;;15.65;75.56
10992;BME280;5549;47.028;15.514;2023-05-17T06:48:17;96198.75;;;15.73;74.30
10992;BME280;5549;47.028;15.514;2023-05-17T06:50:45;96189.81;;;15.82;74.99
10992;BME280;5549;47.028;15.514;2023-05-17T06:53:14;96201.69;;;15.86;74.54
10992;BME280;5549;47.028;15.514;2023-05-17T06:55:42;96205.66;;;15.90;74.18
10992;BME280;5549;47.028;15.514;2023-05-17T06:58:09;96214.59;;;15.89;72.49
10992;BME280;5549;47.028;15.514;2023-05-17T07:00:38;96207.28;;;15.99;72.75
10992;BME280;5549;47.028;15.514;2023-05-17T07:03:05;96218.78;;;15.59;70.57
10992;BME280;5549;47.028;15.514;2023-05-17T07:05:36;96225.22;;;15.32;70.33
10992;BME280;5549;47.028;15.514;2023-05-17T07:08:06;96221.28;;;15.20;65.57
10992;BME280;5549;47.028;15.514;2023-05-17T07:10:33;96220.94;;;15.31;65.76
10992;BME280;5549;47.028;15.514;2023-05-17T07:13:03;96221.56;;;15.49;68.78
10992;BME280;5549;47.028;15.514;2023-05-17T07:15:33;96231.66;;;15.46;68.95
10992;BME280;5549;47.028;15.514;2023-05-17T07:18:01;96234.47;;;15.52;69.98
10992;BME280;5549;47.028;15.514;2023-05-17T07:20:29;96237.44;;;15.49;69.82
10992;BME280;5549;47.028;15.514;2023-05-17T07:23:00;96233.16;;;15.40;68.95
10992;BME280;5549;47.028;15.514;2023-05-17T07:25:27;96234.16;;;15.47;68.75
10992;BME280;5549;47.028;15.514;2023-05-17T07:27:55;96237.97;;;15.36;66.87
10992;BME280;5549;47.028;15.514;2023-05-17T07:30:23;96230.34;;;15.41;68.95
10992;BME280;5549;47.028;15.514;2023-05-17T07:32:53;96238.63;;;15.30;66.00
10992;BME280;5549;47.028;15.514;2023-05-17T07:35:21;96251.53;;;15.25;65.17
10992;BME280;5549;47.028;15.514;2023-05-17T07:37:48;96250.03;;;14.98;62.67
10992;BME280;5549;47.028;15.514;2023-05-17T07:40:22;96254.66;;;15.04;63.40
10992;BME280;5549;47.028;15.514;2023-05-17T07:42:49;96254.00;;;15.19;63.09
10992;BME280;5549;47.028;15.514;2023-05-17T07:45:21;96248.38;;;14.97;61.54
10992;BME280;5549;47.028;15.514;2023-05-17T07:47:51;96257.94;;;14.98;61.70
10992;BME280;5549;47.028;15.514;2023-05-17T07:50:22;96253.00;;;15.12;63.27
10992;BME280;5549;47.028;15.514;2023-05-17T07:52:49;96254.00;;;15.11;63.00
10992;BME280;5549;47.028;15.514;2023-05-17T07:55:17;96249.03;;;15.24;61.88
10992;BME280;5549;47.028;15.514;2023-05-17T07:57:50;96253.16;;;15.43;61.79
10992;BME280;5549;47.028;15.514;2023-05-17T08:00:19;96258.63;;;15.33;62.04
10992;BME280;5549;47.028;15.514;2023-05-17T08:02:50;96256.97;;;15.48;63.73
10992;BME280;5549;47.028;15.514;2023-05-17T08:05:17;96255.97;;;15.49;60.48
10992;BME280;5549;47.028;15.514;2023-05-17T08:07:46;96273.50;;;15.26;58.68
10992;BME280;5549;47.028;15.514;2023-05-17T08:10:13;96268.56;;;15.23;57.58
10992;BME280;5549;47.028;15.514;2023-05-17T08:12:41;96275.81;;;15.13;54.88
10992;BME280;5549;47.028;15.514;2023-05-17T08:15:10;96278.41;;;14.80;54.21
10992;BME280;5549;47.028;15.514;2023-05-17T08:17:38;96294.97;;;14.90;55.41
10992;BME280;5549;47.028;15.514;2023-05-17T08:20:09;96292.28;;;14.82;55.38
10992;BME280;5549;47.028;15.514;2023-05-17T08:22:39;96299.50;;;14.64;53.00
10992;BME280;5549;47.028;15.514;2023-05-17T08:25:07;96303.16;;;14.63;53.87
10992;BME280;5549;47.028;15.514;2023-05-17T08:27:34;96301.16;;;14.65;54.64
10992;BME280;5549;47.028;15.514;2023-05-17T08:30:07;96301.31;;;14.63;55.26
10992;BME280;5549;47.028;15.514;2023-05-17T08:32:37;96309.81;;;14.83;56.52
10992;BME280;5549;47.028;15.514;2023-05-17T08:35:05;96317.00;;;14.57;55.93
10992;BME280;5549;47.028;15.514;2023-05-17T08:37:33;96307.16;;;14.75;55.51
10992;BME280;5549;47.028;15.514;2023-05-17T08:40:04;96313.00;;;15.03;55.56
10992;BME280;5549;47.028;15.514;2023-05-17T08:42:35;96316.81;;;15.17;54.92
10992;BME280;5549;47.028;15.514;2023-05-17T08:45:07;96315.00;;;15.25;56.26
10992;BME280;5549;47.028;15.514;2023-05-17T08:47:37;96315.84;;;15.18;58.21
10992;BME280;5549;47.028;15.514;2023-05-17T08:50:06;96311.19;;;15.03;56.33
10992;BME280;5549;47.028;15.514;2023-05-17T08:52:36;96322.13;;;15.25;57.16
10992;BME280;5549;47.028;15.514;2023-05-17T08:55:07;96316.19;;;15.39;57.47
10992;BME280;5549;47.028;15.514;2023-05-17T08:57:38;96317.84;;;15.48;57.15
10992;BME280;5549;47.028;15.514;2023-05-17T09:00:08;96312.72;;;15.47;57.89
10992;BME280;5549;47.028;15.514;2023-05-17T09:02:41;96319.16;;;15.36;56.18
10992;BME280;5549;47.028;15.514;2023-05-17T09:05:12;96316.66;;;15.26;56.07
10992;BME280;5549;47.028;15.514;2023-05-17T09:07:42;96319.13;;;15.20;56.55
10992;BME280;5549;47.028;15.514;2023-05-17T09:10:10;96318.97;;;15.21;55.53
10992;BME280;5549;47.028;15.514;2023-05-17T09:12:38;96318.47;;;15.18;55.19
10992;BME280;5549;47.028;15.514;2023-05-17T09:15:14;96324.03;;;14.82;55.56
10992;BME280;5549;47.028;15.514;2023-05-17T09:17:50;96317.22;;;14.71;55.25
10992;BME280;5549;47.028;15.514;2023-05-17T09:20:22;96324.34;;;14.79;56.58
10992;BME280;5549;47.028;15.514;2023-05-17T09:22:54;96328.97;;;14.77;56.80
10992;BME280;5549;47.028;15.514;2023-05-17T09:25:24;96321.97;;;14.34;55.07
10992;BME280;5549;47.028;15.514;2023-05-17T09:27:54;96327.78;;;14.37;55.58
10992;BME280;5549;47.028;15.514;2023-05-17T09:30:30;96327.38;;;14.50;56.93
10992;BME280;5549;47.028;15.514;2023-05-17T09:33:06;96328.47;;;14.82;57.49
10992;BME280;5549;47.028;15.514;2023-05-17T09:35:37;96337.84;;;14.68;58.56
10992;BME280;5549;47.028;15.514;2023-05-17T09:38:06;96343.84;;;14.78;57.70
10992;BME280;5549;47.028;15.514;2023-05-17T09:40:38;96341.84;;;14.80;55.94
10992;BME280;5549;47.028;15.514;2023-05-17T09:43:09;96348.09;;;14.71;55.91
10992;BME280;5549;47.028;15.514;2023-05-17T09:45:40;96350.91;;;14.69;55.10
10992;BME280;5549;47.028;15.514;2023-05-17T09:48:14;96355.09;;;14.88;54.65
10992;BME280;5549;47.028;15.514;2023-05-17T09:50:44;96354.28;;;14.96;55.64
10992;BME280;5549;47.028;15.514;2023-05-17T09:53:26;96350.78;;;14.79;54.72
10992;BME280;5549;47.028;15.514;2023-05-17T09:55:54;96358.13;;;15.01;56.02
10992;BME280;5549;47.028;15.514;2023-05-17T09:58:23;96356.16;;;15.12;55.39
10992;BME280;5549;47.028;15.514;2023-05-17T10:00:52;96354.13;;;14.97;54.98
10992;BME280;5549;47.028;15.514;2023-05-17T10:03:25;96352.47;;;14.88;55.69
10992;BME280;5549;47.028;15.514;2023-05-17T10:05:54;96357.13;;;15.02;55.74
10992;BME280;5549;47.028;15.514;2023-05-17T10:08:25;96358.47;;;15.06;55.47
10992;BME280;5549;47.028;15.514;2023-05-17T10:10:59;96365.56;;;15.06;55.63
10992;BME280;5549;47.028;15.514;2023-05-17T10:13:35;96366.41;;;15.15;53.71
10992;BME280;5549;47.028;15.514;2023-05-17T10:16:04;96371.56;;;15.24;53.92
10992;BME280;5549;47.028;15.514;2023-05-17T10:18:35;96368.75;;;15.26;54.58
10992;BME280;5549;47.028;15.514;2023-05-17T10:21:08;96372.06;;;15.28;54.88
10992;BME280;5549;47.028;15.514;2023-05-17T10:23:37;96378.94;;;15.04;54.21
10992;BME280;5549;47.028;15.514;2023-05-17T10:26:06;96378.31;;;15.19;54.12
10992;BME280;5549;47.028;15.514;2023-05-17T10:28:36;96383.56;;;15.02;53.95
10992;BME280;5549;47.028;15.514;2023-05-17T10:31:03;96379.66;;;15.23;54.42
10992;BME280;5549;47.028;15.514;2023-05-17T10:33:32;96386.25;;;15.19;54.38
10992;BME280;5549;47.028;15.514;2023-05-17T10:36:04;96392.25;;;15.37;54.64
10992;BME280;5549;47.028;15.514;2023-05-17T10:38:32;96391.84;;;15.07;54.28
10992;BME280;5549;47.028;15.514;2023-05-17T10:41:01;96385.63;;;15.33;54.93
10992;BME280;5549;47.028;15.514;2023-05-17T10:43:32;96389.59;;;15.29;54.69
10992;BME280;5549;47.028;15.514;2023-05-17T10:46:01;96388.41;;;15.23;54.40
10992;BME280;5549;47.028;15.514;2023-05-17T10:48:29;96389.63;;;15.45;54.46
10992;BME280;5549;47.028;15.514;2023-05-17T10:50:57;96393.25;;;15.36;52.69
10992;BME280;5549;47.028;15.514;2023-05-17T10:54:06;96388.28;;;15.33;52.78
10992;BME280;5549;47.028;15.514;2023-05-17T10:56:34;96391.03;;;15.65;52.69
10992;BME280;5549;47.028;15.514;2023-05-17T10:59:19;96396.56;;;15.54;52.84
10992;BME280;5549;47.028;15.514;2023-05-17T11:01:57;96399.22;;;15.54;53.19
10992;BME280;5549;47.028;15.514;2023-05-17T11:04:26;96404.16;;;15.41;52.47
10992;BME280;5549;47.028;15.514;2023-05-17T11:07:22;96407.94;;;15.30;52.28
10992;BME280;5549;47.028;15.514;2023-05-17T11:10:01;96402.19;;;15.43;52.83
10992;BME280;5549;47.028;15.514;2023-05-17T11:12:33;96410.47;;;15.48;54.38
10992;BME280;5549;47.028;15.514;2023-05-17T11:15:05;96406.78;;;15.33;53.52
10992;BME280;5549;47.028;15.514;2023-05-17T11:17:45;96415.75;;;15.48;53.75
10992;BME280;5549;47.028;15.514;2023-05-17T11:20:31;96410.78;;;15.45;53.10
10992;BME280;5549;47.028;15.514;2023-05-17T11:23:03;96417.41;;;15.49;52.48
10992;BME280;5549;47.028;15.514;2023-05-17T11:25:37;96415.09;;;15.54;53.00
10992;BME280;5549;47.028;15.514;2023-05-17T11:28:07;96428.03;;;15.57;52.76
10992;BME280;5549;47.028;15.514;2023-05-17T11:30:40;96422.47;;;15.68;53.06
10992;BME280;5549;47.028;15.514;2023-05-17T11:33:12;96426.22;;;15.58;53.38
10992;BME280;5549;47.028;15.514;2023-05-17T11:35:43;96430.91;;;15.72;52.15
10992;BME280;5549;47.028;15.514;2023-05-17T11:38:14;96437.63;;;15.58;52.50
10992;BME280;5549;47.028;15.514;2023-05-17T11:40:45;96443.16;;;15.65;52.68
10992;BME280;5549;47.028;15.514;2023-05-17T11:43:15;96453.16;;;15.53;54.03
10992;BME280;5549;47.028;15.514;2023-05-17T11:45:45;96457.59;;;15.45;53.43
10992;BME280;5549;47.028;15.514;2023-05-17T11:48:15;96458.38;;;15.29;53.56
10992;BME280;5549;47.028;15.514;2023-05-17T11:50:45;96461.44;;;15.08;53.30
10992;BME280;5549;47.028;15.514;2023-05-17T11:53:14;96462.66;;;15.22;52.35
10992;BME280;5549;47.028;15.514;2023-05-17T11:55:47;96482.38;;;14.93;53.22
10992;BME280;5549;47.028;15.514;2023-05-17T11:58:20;96485.09;;;15.09;53.02
10992;BME280;5549;47.028;15.514;2023-05-17T12:00:54;96488.75;;;15.17;52.10
10992;BME280;5549;47.028;15.514;2023-05-17T12:03:23;96490.28;;;15.27;52.83
10992;BME280;5549;47.028;15.514;2023-05-17T12:06:03;96496.56;;;15.26;54.14
10992;BME280;5549;47.028;15.514;2023-05-17T12:08:33;96502.66;;;15.19;53.01
10992;BME280;5549;47.028;15.514;2023-05-17T12:11:05;96502.25;;;15.05;52.04
10992;BME280;5549;47.028;15.514;2023-05-17T12:13:34;96510.56;;;15.11;51.29
10992;BME280;5549;47.028;15.514;2023-05-17T12:16:08;96514.38;;;14.82;51.88
10992;BME280;5549;47.028;15.514;2023-05-17T12:18:39;96520.13;;;14.77;51.48
10992;BME280;5549;47.028;15.514;2023-05-17T12:21:11;96527.53;;;14.74;51.55
10992;BME280;5549;47.028;15.514;2023-05-17T12:23:40;96527.31;;;14.93;52.23
10992;BME280;5549;47.028;15.514;2023-05-17T12:26:14;96534.25;;;14.94;51.84
10992;BME280;5549;47.028;15.514;2023-05-17T12:28:51;96538.41;;;14.71;51.98
10992;BME280;5549;47.028;15.514;2023-05-17T12:31:25;96549.63;;;14.91;52.43
10992;BME280;5549;47.028;15.514;2023-05-17T12:33:55;96551.16;;;14.75;53.64
10992;BME280;5549;47.028;15.514;2023-05-17T12:36:25;96560.53;;;14.70;54.09
10992;BME280;5549;47.028;15.514;2023-05-17T12:38:55;96560.66;;;14.25;53.53
10992;BME280;5549;47.028;15.514;2023-05-17T12:41:24;96564.81;;;14.45;55.02
10992;BME280;5549;47.028;15.514;2023-05-17T12:43:55;96570.97;;;14.36;55.90
10992;BME280;5549;47.028;15.514;2023-05-17T12:46:24;96570.31;;;14.34;55.58
10992;BME280;5549;47.028;15.514;2023-05-17T12:48:54;96578.84;;;14.28;57.45
10992;BME280;5549;47.028;15.514;2023-05-17T12:51:22;96575.81;;;13.77;55.48
10992;BME280;5549;47.028;15.514;2023-05-17T12:53:54;96576.72;;;13.68;57.14
10992;BME280;5549;47.028;15.514;2023-05-17T12:56:26;96589.06;;;13.40;57.31
10992;BME280;5549;47.028;15.514;2023-05-17T12:59:06;96589.78;;;13.33;57.48
10992;BME280;5549;47.028;15.514;2023-05-17T13:01:42;96589.19;;;13.02;59.44
10992;BME280;5549;47.028;15.514;2023-05-17T13:04:13;96596.09;;;13.12;59.46
10992;BME280;5549;47.028;15.514;2023-05-17T13:06:47;96607.53;;;12.84;61.34
10992;BME280;5549;47.028;15.514;2023-05-17T13:09:17;96610.28;;;12.92;60.84
10992;BME280;5549;47.028;15.514;2023-05-17T13:11:51;96608.94;;;12.69;62.60
10992;BME280;5549;47.028;15.514;2023-05-17T13:14:39;96615.03;;;12.69;63.55
10992;BME280;5549;47.028;15.514;2023-05-17T13:17:10;96606.69;;;12.93;64.12